Time;durP1;ratioP1;P1;durP2;ratioP2;P2;SDS_P1;SDS_P2;PMS_P1;PMS_P2;Temp;Humidity;BMP_temperature;BMP_pressure;BME280_temperature;BME280_humidity;BME280_pressure;Samples;Min_cycle;Max_cycle;Signal;HPM_P1;HPM_P2
2022/10/17 00:00:25;;;;;;;2.88;2.15;;;;;;;;;;1035455;28;20082;-80
2022/10/17 00:00:56;;;;;;;6.75;3.08;;;;;;;;;;1035180;28;20428;-80
2022/10/17 00:01:27;;;;;;;3.60;2.63;;;;;;;;;;1034839;28;20025;-80
2022/10/17 00:01:58;;;;;;;3.63;3.05;;;;;;;;;;1036284;28;20689;-81
2022/10/17 00:02:29;;;;;;;5.10;2.95;;;;;;;;;;1035033;28;20072;-80
2022/10/17 00:03:00;;;;;;;4.20;3.10;;;;;;;;;;1038518;28;20400;-80
2022/10/17 00:03:31;;;;;;;3.55;3.03;;;;;;;;;;1038716;28;20263;-80
2022/10/17 00:04:02;;;;;;;3.58;3.28;;;;;;;;;;1034667;28;20029;-82
2022/10/17 00:04:33;;;;;;;5.57;3.53;;;;;;;;;;1034827;28;20021;-80
2022/10/17 00:05:04;;;;;;;3.17;2.70;;;;;;;;;;1036661;28;20484;-80
2022/10/17 00:05:38;;;;;;;4.57;2.75;;;;;;;;;;1038794;28;20017;-79
2022/10/17 00:06:11;;;;;;;4.30;3.30;;;;;;;;;;1038970;28;20021;-80
2022/10/17 00:06:42;;;;;;;6.43;3.47;;;;;;;;;;1034133;28;20068;-80
2022/10/17 00:07:13;;;;;;;3.80;3.00;;;;;;;;;;1030244;28;20176;-80
2022/10/17 00:07:44;;;;;;;4.95;2.90;;;;;;;;;;1026649;28;20049;-80
2022/10/17 00:08:16;;;;;;;3.10;2.75;;;;;;;;;;1027188;28;20047;-80
2022/10/17 00:08:47;;;;;;;3.78;3.00;;;;;;;;;;1026906;28;20518;-80
2022/10/17 00:09:18;;;;;;;4.78;3.80;;;;;;;;;;1030976;28;20035;-81
2022/10/17 00:09:49;;;;;;;3.58;3.03;;;;;;;;;;1031050;28;20050;-80
2022/10/17 00:10:20;;;;;;;4.95;3.42;;;;;;;;;;1035014;28;20018;-82
2022/10/17 00:11:02;;;;;;;3.00;2.58;;;;;;;;;;1039674;28;20464;-80
2022/10/17 00:11:33;;;;;;;3.70;3.15;;;;;;;;;;1040301;28;20025;-80
2022/10/17 00:12:04;;;;;;;3.95;2.92;;;;;;;;;;1040175;28;20096;-80
2022/10/17 00:12:35;;;;;;;3.63;3.00;;;;;;;;;;1039057;28;20030;-80
2022/10/17 00:13:06;;;;;;;3.60;3.20;;;;;;;;;;1038903;28;20036;-80
2022/10/17 00:13:38;;;;;;;4.50;2.70;;;;;;;;;;1038511;28;20017;-80
2022/10/17 00:14:09;;;;;;;5.57;3.38;;;;;;;;;;1034902;28;20040;-80
2022/10/17 00:14:40;;;;;;;4.82;2.70;;;;;;;;;;1030782;28;20031;-80
2022/10/17 00:15:14;;;;;;;5.97;3.72;;;;;;;;;;1031039;28;20034;-80
2022/10/17 00:15:45;;;;;;;5.82;3.08;;;;;;;;;;1035489;28;20029;-80
2022/10/17 00:16:22;;;;;;;3.90;3.28;;;;;;;;;;1039914;28;20029;-80
2022/10/17 00:16:53;;;;;;;3.78;2.33;;;;;;;;;;1041001;28;20186;-80
2022/10/17 00:17:24;;;;;;;4.20;3.22;;;;;;;;;;1038854;28;20091;-80
2022/10/17 00:17:55;;;;;;;4.38;3.35;;;;;;;;;;1035239;28;20026;-82
2022/10/17 00:18:27;;;;;;;4.05;3.17;;;;;;;;;;1035516;28;20124;-80
2022/10/17 00:18:58;;;;;;;5.30;3.45;;;;;;;;;;1037054;28;20481;-80
2022/10/17 00:19:29;;;;;;;4.85;2.97;;;;;;;;;;1034785;28;20469;-80
2022/10/17 00:20:00;;;;;;;5.95;3.22;;;;;;;;;;1030708;28;20030;-80
2022/10/17 00:20:34;;;;;;;5.57;4.10;;;;;;;;;;1034846;28;20481;-80
2022/10/17 00:21:05;;;;;;;4.78;3.75;;;;;;;;;;1030830;28;20430;-81
2022/10/17 00:21:36;;;;;;;4.35;3.63;;;;;;;;;;1031009;28;20073;-80
2022/10/17 00:22:07;;;;;;;4.88;3.38;;;;;;;;;;1035010;28;20044;-80
2022/10/17 00:22:38;;;;;;;4.22;3.17;;;;;;;;;;1038787;28;20037;-80
2022/10/17 00:23:09;;;;;;;4.28;3.67;;;;;;;;;;1038832;28;20495;-80
2022/10/17 00:23:40;;;;;;;4.72;3.72;;;;;;;;;;1042440;28;20143;-80
2022/10/17 00:24:11;;;;;;;3.58;2.75;;;;;;;;;;1039846;28;20010;-80
2022/10/17 00:24:42;;;;;;;6.10;4.30;;;;;;;;;;1039201;28;20010;-80
2022/10/17 00:25:13;;;;;;;7.15;3.97;;;;;;;;;;1040633;28;20115;-80
2022/10/17 00:25:44;;;;;;;4.38;3.25;;;;;;;;;;1045190;28;20012;-80
2022/10/17 00:26:15;;;;;;;5.03;3.00;;;;;;;;;;1039772;28;20618;-80
2022/10/17 00:26:46;;;;;;;4.80;3.35;;;;;;;;;;1040138;28;20017;-80
2022/10/17 00:27:17;;;;;;;4.32;3.55;;;;;;;;;;1042295;28;20108;-80
2022/10/17 00:27:48;;;;;;;4.20;2.80;;;;;;;;;;1038833;28;20045;-80
2022/10/17 00:28:19;;;;;;;5.05;3.65;;;;;;;;;;1038978;28;20476;-81
2022/10/17 00:28:51;;;;;;;7.53;3.72;;;;;;;;;;1039668;28;20018;-81
2022/10/17 00:29:22;;;;;;;6.45;3.47;;;;;;;;;;1035452;28;20010;-80
2022/10/17 00:29:53;;;;;;;4.68;3.47;;;;;;;;;;1034531;28;20592;-80
2022/10/17 00:30:24;;;;;;;6.30;3.53;;;;;;;;;;1034222;28;20661;-80
2022/10/17 00:30:58;;;;;;;7.25;3.35;;;;;;;;;;1035036;28;20262;-80
2022/10/17 00:31:29;;;;;;;5.47;3.58;;;;;;;;;;1036070;28;20409;-80
2022/10/17 00:32:00;;;;;;;5.43;4.20;;;;;;;;;;1038949;28;21727;-80
2022/10/17 00:32:31;;;;;;;5.53;3.78;;;;;;;;;;1034058;28;20083;-80
2022/10/17 00:33:02;;;;;;;5.43;3.78;;;;;;;;;;1030899;28;20030;-80
2022/10/17 00:33:34;;;;;;;4.28;3.70;;;;;;;;;;1032660;28;20018;-80
2022/10/17 00:34:05;;;;;;;5.47;3.88;;;;;;;;;;1035859;28;20028;-79
2022/10/17 00:34:36;;;;;;;4.53;3.58;;;;;;;;;;1034819;28;20021;-81
2022/10/17 00:35:07;;;;;;;5.43;3.42;;;;;;;;;;1039421;28;20358;-79
2022/10/17 00:35:38;;;;;;;4.43;3.40;;;;;;;;;;1042723;28;20021;-78
2022/10/17 00:36:12;;;;;;;4.38;3.78;;;;;;;;;;1039202;28;20017;-79
2022/10/17 00:36:43;;;;;;;8.32;3.50;;;;;;;;;;1039435;28;20021;-79
2022/10/17 00:37:14;;;;;;;4.00;3.25;;;;;;;;;;1042171;28;20028;-79
2022/10/17 00:37:45;;;;;;;3.47;2.88;;;;;;;;;;1040224;28;20182;-79
2022/10/17 00:38:16;;;;;;;6.28;3.33;;;;;;;;;;1039261;28;20041;-79
2022/10/17 00:38:47;;;;;;;5.65;3.90;;;;;;;;;;1039033;28;20091;-79
2022/10/17 00:39:19;;;;;;;7.75;3.95;;;;;;;;;;1040021;28;20017;-80
2022/10/17 00:39:50;;;;;;;3.97;3.00;;;;;;;;;;1038581;28;20025;-79
2022/10/17 00:40:21;;;;;;;3.47;3.17;;;;;;;;;;1038844;28;20029;-79
2022/10/17 00:40:52;;;;;;;3.88;2.90;;;;;;;;;;1038842;28;20023;-79
2022/10/17 00:41:25;;;;;;;5.72;3.90;;;;;;;;;;1038713;28;20017;-79
2022/10/17 00:41:56;;;;;;;4.78;3.60;;;;;;;;;;1039868;28;20021;-79
2022/10/17 00:42:27;;;;;;;5.70;3.20;;;;;;;;;;1043073;28;20084;-79
2022/10/17 00:42:58;;;;;;;6.63;4.13;;;;;;;;;;1037601;28;20294;-79
2022/10/17 00:43:29;;;;;;;4.00;3.60;;;;;;;;;;1038673;28;20022;-79
2022/10/17 00:44:00;;;;;;;4.15;3.17;;;;;;;;;;1039177;28;20088;-79
2022/10/17 00:44:31;;;;;;;4.17;3.37;;;;;;;;;;1039235;28;20152;-80
2022/10/17 00:45:13;;;;;;;3.47;3.07;;;;;;;;;;1039953;28;20341;-79
2022/10/17 00:45:44;;;;;;;4.20;3.33;;;;;;;;;;1038860;28;20272;-79
2022/10/17 00:46:15;;;;;;;3.15;2.83;;;;;;;;;;1038701;28;20025;-79
2022/10/17 00:46:46;;;;;;;3.90;3.25;;;;;;;;;;1038676;28;20022;-79
2022/10/17 00:47:19;;;;;;;3.70;3.40;;;;;;;;;;1034475;28;20018;-79
2022/10/17 00:48:10;;;;;;;4.18;3.17;;;;;;;;;;1034492;28;20564;-79
2022/10/17 00:48:41;;;;;;;6.22;3.45;;;;;;;;;;1030597;28;20031;-78
2022/10/17 00:49:12;;;;;;;4.38;3.28;;;;;;;;;;1034774;28;20535;-79
2022/10/17 00:49:43;;;;;;;5.63;3.42;;;;;;;;;;1036404;28;20034;-80
2022/10/17 00:50:15;;;;;;;5.78;3.70;;;;;;;;;;1038571;28;20021;-80
2022/10/17 00:50:48;;;;;;;4.75;4.20;;;;;;;;;;1034424;28;20033;-79
2022/10/17 00:51:20;;;;;;;7.20;4.65;;;;;;;;;;1032162;28;20040;-80
2022/10/17 00:51:55;;;;;;;4.30;3.63;;;;;;;;;;1037538;28;20036;-80
2022/10/17 00:52:28;;;;;;;6.35;3.78;;;;;;;;;;1038812;28;20103;-79
2022/10/17 00:53:00;;;;;;;4.45;3.28;;;;;;;;;;1039164;28;20055;-79
2022/10/17 00:53:32;;;;;;;5.57;4.50;;;;;;;;;;1038495;28;20064;-79
2022/10/17 00:54:03;;;;;;;4.40;2.92;;;;;;;;;;1038797;28;20137;-79
2022/10/17 00:54:36;;;;;;;8.10;3.13;;;;;;;;;;1039911;28;20006;-80
2022/10/17 00:55:07;;;;;;;5.30;3.88;;;;;;;;;;1034978;28;20030;-80
2022/10/17 00:55:41;;;;;;;5.22;3.65;;;;;;;;;;1034615;28;20042;-80
2022/10/17 00:56:12;;;;;;;5.03;3.58;;;;;;;;;;1030685;28;20120;-80
2022/10/17 00:56:45;;;;;;;4.18;3.05;;;;;;;;;;1034438;28;20021;-79
2022/10/17 00:57:17;;;;;;;5.07;4.05;;;;;;;;;;1032033;28;20026;-79
2022/10/17 00:57:49;;;;;;;3.30;2.80;;;;;;;;;;1028532;28;20041;-79
2022/10/17 00:58:20;;;;;;;4.65;3.30;;;;;;;;;;1037450;28;20025;-79
2022/10/17 00:58:51;;;;;;;5.78;3.60;;;;;;;;;;1037377;28;20393;-79
2022/10/17 00:59:23;;;;;;;5.32;3.67;;;;;;;;;;1039035;28;20033;-79
2022/10/17 00:59:55;;;;;;;4.53;3.45;;;;;;;;;;1038379;28;20026;-79
2022/10/17 01:00:26;;;;;;;5.05;3.58;;;;;;;;;;1038970;28;20021;-79
2022/10/17 01:00:57;;;;;;;5.35;3.38;;;;;;;;;;1039135;28;20033;-80
2022/10/17 01:01:28;;;;;;;5.95;3.42;;;;;;;;;;1038652;28;20087;-79
2022/10/17 01:02:01;;;;;;;5.25;3.20;;;;;;;;;;1038937;28;20021;-79
2022/10/17 01:02:32;;;;;;;4.70;3.33;;;;;;;;;;1036716;28;20030;-79
2022/10/17 01:03:03;;;;;;;4.80;3.72;;;;;;;;;;1038337;28;20104;-79
2022/10/17 01:03:34;;;;;;;6.43;4.32;;;;;;;;;;1038813;28;20033;-79
2022/10/17 01:04:05;;;;;;;5.63;3.70;;;;;;;;;;1038895;28;20132;-79
2022/10/17 01:04:37;;;;;;;4.40;3.70;;;;;;;;;;1039363;28;20013;-79
2022/10/17 01:05:08;;;;;;;5.65;3.65;;;;;;;;;;1034746;28;20022;-79
2022/10/17 01:05:41;;;;;;;5.93;3.83;;;;;;;;;;1035471;28;20396;-80
2022/10/17 01:06:12;;;;;;;7.20;3.72;;;;;;;;;;1039021;28;20101;-79
2022/10/17 01:06:42;;;;;;;6.85;4.32;;;;;;;;;;1038656;28;20028;-79
2022/10/17 01:07:14;;;;;;;5.75;4.00;;;;;;;;;;1034986;28;20022;-79
2022/10/17 01:07:45;;;;;;;4.72;3.42;;;;;;;;;;1034806;28;20049;-79
2022/10/17 01:08:16;;;;;;;4.72;3.22;;;;;;;;;;1034712;28;20062;-79
2022/10/17 01:08:47;;;;;;;5.60;3.63;;;;;;;;;;1038637;28;20585;-78
2022/10/17 01:09:18;;;;;;;4.93;3.50;;;;;;;;;;1038553;28;20053;-79
2022/10/17 01:09:49;;;;;;;4.60;3.63;;;;;;;;;;1039315;28;20029;-79
2022/10/17 01:10:21;;;;;;;6.45;3.67;;;;;;;;;;1038799;28;20033;-79
2022/10/17 01:11:00;;;;;;;6.05;4.05;;;;;;;;;;1034876;28;20025;-79
2022/10/17 01:11:33;;;;;;;5.38;3.70;;;;;;;;;;1034705;28;20033;-79
2022/10/17 01:12:14;;;;;;;4.97;3.70;;;;;;;;;;1034758;28;20025;-79
2022/10/17 01:12:59;;;;;;;6.85;3.70;;;;;;;;;;1035104;28;20030;-79
2022/10/17 01:13:37;;;;;;;5.15;4.22;;;;;;;;;;1038199;28;20068;-79
2022/10/17 01:14:25;;;;;;;5.72;3.55;;;;;;;;;;1034674;28;20052;-80
2022/10/17 01:15:06;;;;;;;5.35;3.60;;;;;;;;;;1035484;28;20775;-80
2022/10/17 01:15:43;;;;;;;4.15;3.30;;;;;;;;;;1038674;28;20471;-80
2022/10/17 01:16:18;;;;;;;5.25;3.47;;;;;;;;;;1038424;28;20037;-79
2022/10/17 01:17:08;;;;;;;9.52;4.30;;;;;;;;;;1038333;28;20029;-80
2022/10/17 01:17:42;;;;;;;5.07;3.53;;;;;;;;;;1039340;28;20512;-79
2022/10/17 01:18:13;;;;;;;6.70;4.00;;;;;;;;;;1036835;28;20033;-80
2022/10/17 01:18:55;;;;;;;6.90;3.63;;;;;;;;;;1039013;28;20052;-79
2022/10/17 01:19:26;;;;;;;8.23;4.53;;;;;;;;;;1038472;28;20021;-80
2022/10/17 01:20:06;;;;;;;5.67;3.73;;;;;;;;;;1040074;28;20080;-79
2022/10/17 01:20:37;;;;;;;6.13;4.03;;;;;;;;;;1038796;28;20335;-79
2022/10/17 01:21:19;;;;;;;3.87;3.30;;;;;;;;;;1038770;28;20030;-79
2022/10/17 01:22:00;;;;;;;4.05;3.50;;;;;;;;;;1041545;28;20259;-80
2022/10/17 01:22:40;;;;;;;3.38;3.05;;;;;;;;;;1043532;28;20033;-80
2022/10/17 01:23:27;;;;;;;5.47;3.50;;;;;;;;;;1038423;28;20034;-79
2022/10/17 01:24:17;;;;;;;4.82;3.70;;;;;;;;;;1030589;28;20030;-80
2022/10/17 01:24:48;;;;;;;6.80;3.53;;;;;;;;;;1027446;28;20027;-80
2022/10/17 01:25:35;;;;;;;5.78;4.03;;;;;;;;;;1028324;28;20026;-79
2022/10/17 01:26:24;;;;;;;4.95;3.85;;;;;;;;;;1030524;28;20114;-80
2022/10/17 01:26:58;;;;;;;6.55;3.80;;;;;;;;;;1037438;28;20148;-80
2022/10/17 01:27:32;;;;;;;4.75;3.72;;;;;;;;;;1039563;28;20032;-79
2022/10/17 01:28:15;;;;;;;4.75;3.40;;;;;;;;;;1038854;28;20036;-79
2022/10/17 01:29:05;;;;;;;4.85;3.50;;;;;;;;;;1040220;28;20029;-79
2022/10/17 01:29:54;;;;;;;4.28;3.65;;;;;;;;;;1042837;28;20070;-79
2022/10/17 01:30:40;;;;;;;6.28;3.38;;;;;;;;;;1036495;28;20042;-80
2022/10/17 01:31:13;;;;;;;4.15;3.42;;;;;;;;;;1038436;28;20025;-80
2022/10/17 01:31:48;;;;;;;7.80;3.88;;;;;;;;;;1033841;28;20057;-80
2022/10/17 01:32:22;;;;;;;6.10;3.40;;;;;;;;;;1036010;28;20120;-80
2022/10/17 01:33:09;;;;;;;8.52;3.00;;;;;;;;;;1035051;28;20026;-80
2022/10/17 01:33:43;;;;;;;4.20;3.53;;;;;;;;;;1034447;28;20021;-80
2022/10/17 01:34:29;;;;;;;6.05;4.20;;;;;;;;;;1034818;28;20061;-80
2022/10/17 01:35:09;;;;;;;5.75;3.78;;;;;;;;;;1035030;28;22533;-79
2022/10/17 01:35:45;;;;;;;7.20;4.05;;;;;;;;;;1034628;28;20026;-80
2022/10/17 01:36:27;;;;;;;4.60;3.53;;;;;;;;;;1034620;28;20083;-80
2022/10/17 01:37:27;;;;;;;8.73;4.95;;;;;;;;;;1035706;28;20025;-80
2022/10/17 01:38:00;;;;;;;6.28;4.03;;;;;;;;;;1035164;28;20040;-80
2022/10/17 01:38:34;;;;;;;4.72;4.03;;;;;;;;;;1038378;28;20013;-79
2022/10/17 01:39:08;;;;;;;4.82;3.50;;;;;;;;;;1038768;28;20075;-80
2022/10/17 01:40:02;;;;;;;4.63;4.15;;;;;;;;;;1038577;28;20147;-80
2022/10/17 01:40:44;;;;;;;8.15;3.70;;;;;;;;;;1033508;28;20548;-80
2022/10/17 01:41:22;;;;;;;5.70;4.57;;;;;;;;;;1031022;28;20026;-80
2022/10/17 01:41:53;;;;;;;5.25;3.97;;;;;;;;;;1036009;28;20096;-81
2022/10/17 01:42:30;;;;;;;9.83;4.47;;;;;;;;;;1038639;28;20431;-81
2022/10/17 01:43:07;;;;;;;5.18;3.60;;;;;;;;;;1036478;28;20832;-81
2022/10/17 01:43:40;;;;;;;4.50;3.35;;;;;;;;;;1038175;28;20345;-79
2022/10/17 01:44:14;;;;;;;8.45;3.80;;;;;;;;;;1041394;28;20029;-81
2022/10/17 01:44:53;;;;;;;6.45;3.83;;;;;;;;;;1044702;28;20486;-78
2022/10/17 01:45:31;;;;;;;5.55;3.42;;;;;;;;;;1040868;28;20052;-79
2022/10/17 01:46:07;;;;;;;3.90;3.20;;;;;;;;;;1038894;28;20578;-79
2022/10/17 01:46:40;;;;;;;4.85;4.35;;;;;;;;;;1038698;28;20396;-79
2022/10/17 01:47:13;;;;;;;3.45;3.13;;;;;;;;;;1040389;28;20167;-79
2022/10/17 01:47:45;;;;;;;5.97;3.97;;;;;;;;;;1038808;28;20484;-78
2022/10/17 01:48:24;;;;;;;5.53;3.65;;;;;;;;;;1039333;28;20013;-79
2022/10/17 01:48:56;;;;;;;3.92;3.40;;;;;;;;;;1038493;28;20486;-79
2022/10/17 01:49:29;;;;;;;4.57;3.22;;;;;;;;;;1034314;28;20124;-79
2022/10/17 01:50:11;;;;;;;4.70;3.22;;;;;;;;;;1034654;28;20086;-78
2022/10/17 01:50:46;;;;;;;3.85;2.97;;;;;;;;;;1036011;28;20022;-79
2022/10/17 01:51:20;;;;;;;4.32;3.50;;;;;;;;;;1036765;28;20399;-79
2022/10/17 01:51:54;;;;;;;6.25;3.97;;;;;;;;;;1038236;28;20024;-79
2022/10/17 01:52:33;;;;;;;7.40;4.85;;;;;;;;;;1036812;28;20084;-79
2022/10/17 01:53:04;;;;;;;;;;;;;;;;;;1039707;28;20036;-79
2022/10/17 01:53:37;;;;;;;4.80;3.57;;;;;;;;;;1038597;28;19916;-79
2022/10/17 01:54:11;;;;;;;4.75;3.72;;;;;;;;;;1035894;28;20064;-79
2022/10/17 01:54:44;;;;;;;4.20;3.80;;;;;;;;;;1030622;28;20037;-79
2022/10/17 01:55:18;;;;;;;7.28;3.95;;;;;;;;;;1031484;28;20022;-79
2022/10/17 01:55:49;;;;;;;6.45;3.70;;;;;;;;;;1035841;28;20030;-80
2022/10/17 01:56:21;;;;;;;5.20;3.38;;;;;;;;;;1034823;28;20169;-80
2022/10/17 01:56:55;;;;;;;4.60;3.83;;;;;;;;;;1034435;28;20116;-80
2022/10/17 01:57:32;;;;;;;5.22;4.00;;;;;;;;;;1034233;28;20033;-80
2022/10/17 01:58:06;;;;;;;4.53;3.60;;;;;;;;;;1034554;28;20030;-80
2022/10/17 01:58:40;;;;;;;4.22;3.45;;;;;;;;;;1033462;28;20417;-81
2022/10/17 01:59:13;;;;;;;5.78;3.60;;;;;;;;;;1036257;28;20033;-80
2022/10/17 01:59:46;;;;;;;4.43;3.85;;;;;;;;;;1034514;28;20626;-81
2022/10/17 02:00:19;;;;;;;6.95;3.55;;;;;;;;;;1035790;28;20099;-81
2022/10/17 02:00:51;;;;;;;5.55;3.53;;;;;;;;;;1038480;28;20029;-81
2022/10/17 02:01:23;;;;;;;4.63;3.78;;;;;;;;;;1034237;28;20029;-81
2022/10/17 02:01:55;;;;;;;4.85;3.70;;;;;;;;;;1034051;28;20022;-81
2022/10/17 02:02:27;;;;;;;5.18;3.65;;;;;;;;;;1034933;28;20033;-81
2022/10/17 02:02:59;;;;;;;4.47;3.95;;;;;;;;;;1030735;28;20051;-80
2022/10/17 02:03:31;;;;;;;4.45;3.45;;;;;;;;;;1027513;28;20052;-81
2022/10/17 02:04:03;;;;;;;6.53;4.00;;;;;;;;;;1027250;28;20011;-81
2022/10/17 02:04:34;;;;;;;6.80;4.05;;;;;;;;;;1026738;28;20033;-81
2022/10/17 02:05:05;;;;;;;4.72;3.58;;;;;;;;;;1030662;28;20109;-80
2022/10/17 02:05:38;;;;;;;6.00;3.60;;;;;;;;;;1030883;28;20042;-78
2022/10/17 02:06:09;;;;;;;5.05;3.55;;;;;;;;;;1031435;28;20018;-79
2022/10/17 02:06:40;;;;;;;4.35;3.70;;;;;;;;;;1032247;28;20022;-80
2022/10/17 02:07:12;;;;;;;7.93;3.65;;;;;;;;;;1033104;28;20174;-79
2022/10/17 02:07:43;;;;;;;4.07;3.58;;;;;;;;;;1032305;28;20518;-79
2022/10/17 02:08:14;;;;;;;4.28;3.72;;;;;;;;;;1034293;28;20576;-79
2022/10/17 02:08:48;;;;;;;4.72;3.90;;;;;;;;;;1031609;28;20014;-80
2022/10/17 02:09:21;;;;;;;5.88;3.75;;;;;;;;;;1035256;28;20022;-79
2022/10/17 02:09:52;;;;;;;4.82;3.70;;;;;;;;;;1038741;28;20017;-80
2022/10/17 02:10:46;;;;;;;4.60;4.15;;;;;;;;;;1037508;28;20017;-79
2022/10/17 02:11:24;;;;;;;5.22;3.80;;;;;;;;;;1035604;28;20049;-80
2022/10/17 02:12:04;;;;;;;5.32;3.95;;;;;;;;;;1038319;28;20021;-80
2022/10/17 02:12:45;;;;;;;4.47;3.58;;;;;;;;;;1038440;28;20018;-79
2022/10/17 02:13:26;;;;;;;7.55;4.35;;;;;;;;;;1033967;28;20156;-79
2022/10/17 02:14:16;;;;;;;6.00;4.10;;;;;;;;;;1039362;28;20029;-80
2022/10/17 02:14:53;;;;;;;6.32;3.70;;;;;;;;;;1038628;28;20781;-79
2022/10/17 02:15:41;;;;;;;4.55;3.67;;;;;;;;;;1034561;28;20033;-79
2022/10/17 02:16:15;;;;;;;7.28;4.40;;;;;;;;;;1037674;28;20025;-79
2022/10/17 02:16:52;;;;;;;11.35;3.97;;;;;;;;;;1038497;28;20025;-79
2022/10/17 02:17:42;;;;;;;5.72;4.05;;;;;;;;;;1038409;28;20033;-79
2022/10/17 02:18:12;;;;;;;3.45;3.10;;;;;;;;;;1039063;28;20564;-79
2022/10/17 02:18:47;;;;;;;3.58;2.88;;;;;;;;;;1039538;28;20480;-78
2022/10/17 02:19:23;;;;;;;3.88;3.25;;;;;;;;;;1039332;28;20030;-79
2022/10/17 02:20:16;;;;;;;4.78;3.90;;;;;;;;;;1034709;28;20022;-79
2022/10/17 02:21:02;;;;;;;3.95;3.30;;;;;;;;;;1034349;28;20071;-80
2022/10/17 02:21:38;;;;;;;4.10;2.92;;;;;;;;;;1035170;28;20022;-80
2022/10/17 02:22:18;;;;;;;4.18;3.35;;;;;;;;;;1034601;28;20196;-80
2022/10/17 02:22:52;;;;;;;4.80;3.53;;;;;;;;;;1034134;28;20033;-80
2022/10/17 02:23:27;;;;;;;7.35;4.30;;;;;;;;;;1034400;28;20030;-80
2022/10/17 02:24:07;;;;;;;5.88;4.53;;;;;;;;;;1035330;28;20097;-80
2022/10/17 02:24:44;;;;;;;4.68;4.18;;;;;;;;;;1038204;28;20053;-80
2022/10/17 02:25:23;;;;;;;5.22;3.75;;;;;;;;;;1034341;28;20378;-80
2022/10/17 02:26:03;;;;;;;9.00;5.28;;;;;;;;;;1034486;28;20054;-80
2022/10/17 02:26:40;;;;;;;5.63;4.18;;;;;;;;;;1036998;28;20428;-80
2022/10/17 02:27:13;;;;;;;4.93;4.43;;;;;;;;;;1037696;28;20164;-80
2022/10/17 02:28:00;;;;;;;6.18;4.57;;;;;;;;;;1035516;28;20092;-80
2022/10/17 02:28:34;;;;;;;3.63;3.30;;;;;;;;;;1034562;28;20294;-80
2022/10/17 02:29:08;;;;;;;5.68;4.57;;;;;;;;;;1038347;28;20022;-80
2022/10/17 02:29:46;;;;;;;4.43;3.88;;;;;;;;;;1038926;28;20032;-80
2022/10/17 02:30:31;;;;;;;4.53;3.70;;;;;;;;;;1036478;28;20024;-80
2022/10/17 02:31:07;;;;;;;5.95;4.50;;;;;;;;;;1038522;28;20101;-80
2022/10/17 02:31:46;;;;;;;5.70;4.97;;;;;;;;;;1037409;28;20018;-80
2022/10/17 02:32:36;;;;;;;6.82;5.28;;;;;;;;;;1034363;28;20376;-80
2022/10/17 02:33:07;;;;;;;4.05;3.65;;;;;;;;;;1037472;28;20033;-80
2022/10/17 02:33:43;;;;;;;6.88;4.78;;;;;;;;;;1038344;28;20037;-80
2022/10/17 02:34:32;;;;;;;6.05;4.50;;;;;;;;;;1039175;28;20123;-80
2022/10/17 02:35:07;;;;;;;5.00;4.20;;;;;;;;;;1038385;28;20088;-81
2022/10/17 02:35:40;;;;;;;5.25;3.40;;;;;;;;;;1038310;28;20087;-80
2022/10/17 02:36:14;;;;;;;6.82;4.60;;;;;;;;;;1038043;28;20097;-80
2022/10/17 02:36:47;;;;;;;4.47;3.85;;;;;;;;;;1037572;28;20572;-80
2022/10/17 02:37:21;;;;;;;5.60;5.00;;;;;;;;;;1038438;28;20812;-80
2022/10/17 02:37:53;;;;;;;5.10;4.60;;;;;;;;;;1038604;28;20080;-81
2022/10/17 02:38:25;;;;;;;6.80;5.05;;;;;;;;;;1038352;28;20068;-80
2022/10/17 02:38:57;;;;;;;7.65;4.28;;;;;;;;;;1039513;28;20022;-80
2022/10/17 02:39:28;;;;;;;5.88;5.28;;;;;;;;;;1043175;28;20041;-80
2022/10/17 02:40:00;;;;;;;5.10;4.20;;;;;;;;;;1041543;28;20057;-80
2022/10/17 02:40:31;;;;;;;6.28;4.40;;;;;;;;;;1038479;28;20014;-80
2022/10/17 02:41:03;;;;;;;4.50;3.67;;;;;;;;;;1038526;28;20099;-80
2022/10/17 02:41:35;;;;;;;5.68;3.63;;;;;;;;;;1038736;28;20017;-80
2022/10/17 02:42:08;;;;;;;6.85;5.90;;;;;;;;;;1042937;28;20029;-80
2022/10/17 02:42:42;;;;;;;5.25;4.20;;;;;;;;;;1035221;28;20030;-81
2022/10/17 02:43:13;;;;;;;5.25;3.88;;;;;;;;;;1038474;28;20037;-81
2022/10/17 02:43:46;;;;;;;6.35;5.05;;;;;;;;;;1034162;28;20014;-80
2022/10/17 02:44:17;;;;;;;5.47;4.78;;;;;;;;;;1036125;28;20036;-80
2022/10/17 02:44:48;;;;;;;6.15;4.53;;;;;;;;;;1040923;28;20025;-80
2022/10/17 02:45:19;;;;;;;6.97;6.03;;;;;;;;;;1036818;28;20488;-80
2022/10/17 02:45:51;;;;;;;5.53;4.72;;;;;;;;;;1039396;28;20034;-80
2022/10/17 02:46:23;;;;;;;5.40;4.85;;;;;;;;;;1037612;28;20060;-80
2022/10/17 02:47:01;;;;;;;7.07;5.13;;;;;;;;;;1036218;28;20112;-80
2022/10/17 02:47:34;;;;;;;6.55;5.93;;;;;;;;;;1039396;28;20035;-80
2022/10/17 02:48:07;;;;;;;5.90;4.68;;;;;;;;;;1037184;28;20028;-80
2022/10/17 02:48:41;;;;;;;6.68;5.15;;;;;;;;;;1039014;28;20087;-80
2022/10/17 02:49:18;;;;;;;6.78;4.50;;;;;;;;;;1039205;28;20170;-80
2022/10/17 02:49:53;;;;;;;5.28;4.15;;;;;;;;;;1036813;28;20033;-80
2022/10/17 02:50:28;;;;;;;5.03;4.18;;;;;;;;;;1030958;28;20030;-80
2022/10/17 02:51:22;;;;;;;5.30;4.65;;;;;;;;;;1031206;28;20030;-80
2022/10/17 02:52:00;;;;;;;8.02;4.65;;;;;;;;;;1035712;28;20077;-80
2022/10/17 02:52:31;;;;;;;5.38;4.82;;;;;;;;;;1035267;28;20029;-80
2022/10/17 02:53:06;;;;;;;5.22;4.28;;;;;;;;;;1037006;28;20022;-81
2022/10/17 02:53:43;;;;;;;8.52;4.80;;;;;;;;;;1035121;28;20022;-81
2022/10/17 02:54:18;;;;;;;6.10;4.82;;;;;;;;;;1036754;28;20100;-80
2022/10/17 02:54:57;;;;;;;5.30;4.80;;;;;;;;;;1039884;28;20061;-80
2022/10/17 02:55:31;;;;;;;5.35;4.65;;;;;;;;;;1042423;28;20033;-81
2022/10/17 02:56:04;;;;;;;7.05;5.32;;;;;;;;;;1047556;28;20314;-80
2022/10/17 02:56:39;;;;;;;5.95;5.35;;;;;;;;;;1043959;28;20051;-80
2022/10/17 02:57:13;;;;;;;7.05;6.35;;;;;;;;;;1039777;28;20069;-80
2022/10/17 02:57:47;;;;;;;6.20;5.28;;;;;;;;;;1034902;28;20056;-80
2022/10/17 02:58:20;;;;;;;6.43;5.10;;;;;;;;;;1039080;28;20021;-81
2022/10/17 02:58:54;;;;;;;6.00;4.93;;;;;;;;;;1034238;28;20159;-80
2022/10/17 02:59:25;;;;;;;6.53;5.30;;;;;;;;;;1036296;28;20049;-80
2022/10/17 02:59:57;;;;;;;6.10;4.53;;;;;;;;;;1040002;28;20022;-80
2022/10/17 03:00:29;;;;;;;6.07;4.30;;;;;;;;;;1035915;28;20761;-81
2022/10/17 03:01:00;;;;;;;5.85;5.05;;;;;;;;;;1035557;28;20021;-81
2022/10/17 03:01:31;;;;;;;6.63;5.50;;;;;;;;;;1041816;28;20108;-80
2022/10/17 03:02:04;;;;;;;7.03;5.60;;;;;;;;;;1043069;28;20635;-80
2022/10/17 03:02:38;;;;;;;5.63;4.97;;;;;;;;;;1039762;28;20096;-80
2022/10/17 03:03:35;;;;;;;9.20;5.80;;;;;;;;;;1042266;28;20025;-80
2022/10/17 03:04:11;;;;;;;7.22;4.93;;;;;;;;;;1037028;28;20041;-80
2022/10/17 03:04:43;;;;;;;8.00;5.28;;;;;;;;;;1037243;28;20026;-80
2022/10/17 03:05:17;;;;;;;5.68;4.97;;;;;;;;;;1035169;28;20040;-80
2022/10/17 03:05:48;;;;;;;8.35;6.10;;;;;;;;;;1038505;28;20079;-80
2022/10/17 03:06:19;;;;;;;5.97;5.30;;;;;;;;;;1039460;28;20029;-80
2022/10/17 03:06:50;;;;;;;6.82;4.72;;;;;;;;;;1039155;28;20026;-81
2022/10/17 03:07:21;;;;;;;6.72;5.47;;;;;;;;;;1039836;28;20025;-80
2022/10/17 03:07:53;;;;;;;5.72;5.10;;;;;;;;;;1036876;28;20029;-80
2022/10/17 03:08:24;;;;;;;8.15;5.03;;;;;;;;;;1035471;28;20018;-80
2022/10/17 03:08:55;;;;;;;5.75;5.15;;;;;;;;;;1039153;28;20017;-81
2022/10/17 03:09:25;;;;;;;8.23;5.05;;;;;;;;;;1033669;28;20022;-80
2022/10/17 03:09:56;;;;;;;7.32;5.30;;;;;;;;;;1039662;28;20022;-80
2022/10/17 03:10:27;;;;;;;5.05;4.55;;;;;;;;;;1043194;28;20047;-81
2022/10/17 03:10:58;;;;;;;9.55;5.85;;;;;;;;;;1043330;28;20496;-80
2022/10/17 03:11:30;;;;;;;8.15;5.22;;;;;;;;;;1039037;28;20018;-81
2022/10/17 03:12:00;;;;;;;6.65;5.07;;;;;;;;;;1038944;28;20025;-81
2022/10/17 03:12:31;;;;;;;6.90;5.78;;;;;;;;;;1035934;28;20025;-80
2022/10/17 03:13:02;;;;;;;6.55;5.18;;;;;;;;;;1039319;28;20017;-81
2022/10/17 03:13:33;;;;;;;5.70;5.00;;;;;;;;;;1042930;28;20074;-80
2022/10/17 03:14:04;;;;;;;6.63;4.95;;;;;;;;;;1039100;28;20022;-80
2022/10/17 03:14:35;;;;;;;12.50;6.75;;;;;;;;;;1036984;28;20021;-81
2022/10/17 03:15:07;;;;;;;6.05;5.40;;;;;;;;;;1036112;28;20010;-81
2022/10/17 03:15:37;;;;;;;7.22;5.20;;;;;;;;;;1035049;28;20129;-80
2022/10/17 03:16:08;;;;;;;6.15;5.53;;;;;;;;;;1035143;28;20022;-80
2022/10/17 03:16:39;;;;;;;6.32;5.45;;;;;;;;;;1031909;28;20117;-81
2022/10/17 03:17:10;;;;;;;5.25;4.65;;;;;;;;;;1035487;28;20701;-80
2022/10/17 03:17:41;;;;;;;7.88;5.50;;;;;;;;;;1039822;28;20109;-81
2022/10/17 03:18:12;;;;;;;8.45;5.60;;;;;;;;;;1038395;28;20116;-80
2022/10/17 03:18:43;;;;;;;6.72;5.45;;;;;;;;;;1032786;28;20093;-80
2022/10/17 03:19:14;;;;;;;5.32;4.80;;;;;;;;;;1031076;28;20076;-81
2022/10/17 03:19:45;;;;;;;6.70;5.82;;;;;;;;;;1031367;28;20109;-80
2022/10/17 03:20:16;;;;;;;6.20;5.03;;;;;;;;;;1036253;28;20049;-80
2022/10/17 03:20:47;;;;;;;6.45;5.75;;;;;;;;;;1039077;28;20464;-80
2022/10/17 03:21:18;;;;;;;7.50;4.95;;;;;;;;;;1039445;28;20385;-80
2022/10/17 03:21:49;;;;;;;7.45;4.70;;;;;;;;;;1034869;28;20532;-80
2022/10/17 03:22:20;;;;;;;10.32;6.03;;;;;;;;;;1035297;28;20018;-80
2022/10/17 03:22:51;;;;;;;6.13;5.45;;;;;;;;;;1039897;28;20091;-80
2022/10/17 03:23:22;;;;;;;6.95;4.85;;;;;;;;;;1041553;28;20143;-80
2022/10/17 03:23:53;;;;;;;6.45;5.60;;;;;;;;;;1043260;28;20628;-80
2022/10/17 03:24:24;;;;;;;5.90;5.30;;;;;;;;;;1043177;28;20017;-80
2022/10/17 03:24:55;;;;;;;8.13;5.68;;;;;;;;;;1042395;28;20013;-80
2022/10/17 03:25:26;;;;;;;6.07;5.15;;;;;;;;;;1043813;28;20374;-80